Search for airport 
image banner adimage banner adimage banner ad
image banner ad

CL76 - U S Naval Hospital San Diego

Located in San Diego, United States

ICAO - CL76, IATA -

Data provided by Airmate  

General information

Coordinates: N32°43'30" W117°8'39"
Elevation is 200 feet MSL.
Magnetic variation is 13° East
View others Airports in California

Operational data

Special qualification required
Current time UTC:
Current local time:
Weather at : KSAN - San Diego Intl ( 4 km )
METAR: KSAN 240951Z 17004KT 10SM OVC031 18/13 A2991 RMK AO2 SLP127 T01830128 $
TAF: KSAN 240852Z 2409/2512 19005KT P6SM SCT022 BKN030 TEMPO 2412/2415 BKN020 FM241900 26009KT P6SM SCT035 BKN250 FM250200 VRB04KT P6SM SCT025 FM250600 VRB03KT P6SM BKN025
View NOTAMs / SUP AIP / TFR affecting this airport [VIEW]
Communications frequencies: [VIEW]

Runways:

Airport contact information

Address: San Diego United States

Satellite view of CL76